Decoded Metar for LEBB (BILBAO in SPAIN) (IATA:BIO) | Meteo·Mobile Aviation Weather
aviador You're here:

LEBB Decoded Metar

BILBAO in SPAIN
Report Time2018-10-21 21:30:00
UTC Time2018-10-21 21:55:16
Flight Rules lifr LIFR
Wind360° at 04 kt
W.Decomp.*RWY 30: 1.9 kt HW 3.5 kt RCW
RWY 28: 0.6 kt HW 4.0 kt RCW
Visibility2800 m
Phenomena:Mist
Fog
Clouds:Broken 004 Hf
Ceiling400 ft
Temp16°C (ISA +1)
Dew Point16°C (100% RH)
QNH1024 hPa
Density Alt128 ft
Elevation112 ft
Report Wrong Elevation
Raw Report
LEBB 212130Z 36004KT 330V030 2800 BR BKN004 16/16 Q1024 TEMPO 0500
FG VV001=

Extra information for LEBB:More info

Metar Taf Metar & Taf Last 4 Metars F.Rules Stats Wind Profile Meteogram Temp Stats Airport Information Weather charts Add Link Nearby VenuesMetar ALERT Operation Metar Decoded Social comments